createdAt,value
2022-08-26T00:00:58.291Z,100186.66
2022-08-26T00:02:09.727Z,100193.13
2022-08-26T00:03:13.844Z,100196.28
2022-08-26T00:04:17.136Z,100184.22
2022-08-26T00:05:19.368Z,100189.00
2022-08-26T00:06:21.611Z,100189.00
2022-08-26T00:07:24.775Z,100185.38
2022-08-26T00:08:27.022Z,100187.72
2022-08-26T00:09:29.350Z,100190.50
2022-08-26T00:10:31.894Z,100187.22
2022-08-26T00:11:34.209Z,100184.41
2022-08-26T00:12:37.717Z,100170.69
2022-08-26T00:13:41.285Z,100172.69
2022-08-26T00:14:50.196Z,100180.28
2022-08-26T00:15:52.788Z,100171.03
2022-08-26T00:16:55.394Z,100177.00
2022-08-26T00:17:57.750Z,100177.31
2022-08-26T00:19:00.022Z,100177.31
2022-08-26T00:20:03.800Z,100172.03
2022-08-26T00:21:07.912Z,100173.16
2022-08-26T00:22:10.473Z,100177.16
2022-08-26T00:23:13.824Z,100169.53
2022-08-26T00:24:16.941Z,100178.31
2022-08-26T00:25:19.624Z,100175.84
2022-08-26T00:26:24.892Z,100173.88
2022-08-26T00:27:34.079Z,100171.41
2022-08-26T00:28:36.951Z,100173.38
2022-08-26T00:29:39.169Z,100170.91
2022-08-26T00:30:41.408Z,100174.91
2022-08-26T00:31:47.433Z,100166.47
2022-08-26T00:32:51.233Z,100176.06
2022-08-26T00:33:54.252Z,100168.78
2022-08-26T00:34:58.168Z,100167.13
2022-08-26T00:36:01.458Z,100169.13
2022-08-26T00:37:09.427Z,100168.63
2022-08-26T00:38:15.778Z,100169.47
2022-08-26T00:39:18.047Z,100172.59
2022-08-26T00:40:26.113Z,100167.31
2022-08-26T00:41:28.875Z,100163.69
2022-08-26T00:42:33.487Z,100165.66
2022-08-26T00:43:47.136Z,100172.47
2022-08-26T00:44:50.747Z,100163.19
2022-08-26T00:46:07.360Z,100155.13
2022-08-26T00:47:31.148Z,100157.09
2022-08-26T00:48:35.943Z,100162.72
2022-08-26T00:49:44.452Z,100172.31
2022-08-26T00:50:55.905Z,100163.03
2022-08-26T00:52:01.116Z,100158.91
2022-08-26T00:53:23.874Z,100153.66
2022-08-26T00:54:33.292Z,100152.84
2022-08-26T00:55:41.428Z,100158.78
2022-08-26T00:56:54.641Z,100160.75
2022-08-26T00:57:56.968Z,100153.53
2022-08-26T00:59:02.905Z,100153.84
2022-08-26T01:00:15.211Z,100155.03
2022-08-26T01:01:18.624Z,100151.72
2022-08-26T01:02:26.026Z,100153.72
2022-08-26T01:03:33.692Z,100143.97
2022-08-26T01:04:38.595Z,100157.16
2022-08-26T01:05:45.170Z,100157.50
2022-08-26T01:06:50.605Z,100155.88
2022-08-26T01:07:52.807Z,100159.00
2022-08-26T01:08:55.249Z,100153.75
2022-08-26T01:09:59.975Z,100158.50
2022-08-26T01:11:03.082Z,100153.25
2022-08-26T01:12:09.202Z,100154.41
2022-08-26T01:13:13.648Z,100149.13
2022-08-26T01:14:21.109Z,100147.47
2022-08-26T01:15:27.726Z,100157.06
2022-08-26T01:16:36.609Z,100154.25
2022-08-26T01:17:41.225Z,100163.84
2022-08-26T01:18:47.020Z,100157.38
2022-08-26T01:19:53.461Z,100156.56
2022-08-26T01:21:36.095Z,100162.88
2022-08-26T01:22:53.341Z,100158.41
2022-08-26T01:23:58.176Z,100147.19
2022-08-26T01:25:03.641Z,100150.31
2022-08-26T01:26:19.621Z,100152.28
2022-08-26T01:27:22.697Z,100159.41
2022-08-26T01:28:29.973Z,100141.75
2022-08-26T01:29:43.998Z,100154.13
2022-08-26T01:30:47.370Z,100154.13
2022-08-26T01:31:55.608Z,100154.47
2022-08-26T01:33:01.627Z,100157.28
2022-08-26T01:34:03.796Z,100157.63
2022-08-26T01:35:07.599Z,100158.78
2022-08-26T01:36:11.273Z,100157.97
2022-08-26T01:37:18.881Z,100163.88
2022-08-26T01:38:21.408Z,100156.31
2022-08-26T01:39:26.014Z,100163.88
2022-08-26T01:40:33.892Z,100157.44
2022-08-26T01:41:38.100Z,100159.44
2022-08-26T01:42:41.540Z,100164.22
2022-08-26T01:43:46.818Z,100155.81
2022-08-26T01:44:56.596Z,100166.22
2022-08-26T01:46:03.030Z,100155.31
2022-08-26T01:47:09.539Z,100162.56
2022-08-26T01:48:15.895Z,100169.03
2022-08-26T01:49:21.091Z,100163.75
2022-08-26T01:50:30.255Z,100169.03
2022-08-26T01:51:38.715Z,100164.56
2022-08-26T01:52:45.157Z,100164.56
2022-08-26T01:53:52.500Z,100162.88
2022-08-26T01:54:57.507Z,100165.69
2022-08-26T01:56:02.381Z,100160.41
2022-08-26T01:57:07.413Z,100154.78
2022-08-26T01:58:17.988Z,100151.19
2022-08-26T01:59:24.111Z,100157.94
2022-08-26T02:00:26.786Z,100160.75
2022-08-26T02:01:29.677Z,100160.75
2022-08-26T02:02:32.663Z,100159.09
2022-08-26T02:03:42.318Z,100164.38
2022-08-26T02:04:53.516Z,100164.69
2022-08-26T02:05:58.876Z,100158.28
2022-08-26T02:07:06.670Z,100157.44
2022-08-26T02:08:11.277Z,100163.06
2022-08-26T02:09:14.725Z,100159.44
2022-08-26T02:10:17.374Z,100164.22
2022-08-26T02:11:23.720Z,100164.22
2022-08-26T02:12:27.316Z,100161.44
2022-08-26T02:13:33.127Z,100168.19
2022-08-26T02:14:43.817Z,100163.72
2022-08-26T02:15:47.556Z,100166.53
2022-08-26T02:16:52.452Z,100160.09
2022-08-26T02:17:56.432Z,100171.34
2022-08-26T02:19:03.185Z,100169.34
2022-08-26T02:20:07.224Z,100164.88
2022-08-26T02:21:16.568Z,100163.22
2022-08-26T02:22:21.921Z,100166.03
2022-08-26T02:23:24.802Z,100156.81
2022-08-26T02:24:30.443Z,100161.59
2022-08-26T02:25:55.916Z,100164.72
2022-08-26T02:26:58.491Z,100168.38
2022-08-26T02:28:00.870Z,100167.84
2022-08-26T02:29:10.077Z,100162.25
2022-08-26T02:30:12.577Z,100166.22
2022-08-26T02:31:15.252Z,100169.00
2022-08-26T02:32:20.398Z,100169.00
2022-08-26T02:33:28.775Z,100164.59
2022-08-26T02:34:33.209Z,100165.72
2022-08-26T02:35:37.210Z,100167.69
2022-08-26T02:36:40.301Z,100160.47
2022-08-26T02:37:43.312Z,100159.63
2022-08-26T02:38:46.239Z,100155.16
2022-08-26T02:39:48.506Z,100164.75
2022-08-26T02:40:50.718Z,100163.91
2022-08-26T02:41:53.261Z,100161.09
2022-08-26T02:42:55.879Z,100158.63
2022-08-26T02:43:59.214Z,100157.81
2022-08-26T02:45:01.455Z,100155.38
2022-08-26T02:46:03.957Z,100154.19
2022-08-26T02:47:07.977Z,100164.59
2022-08-26T02:48:16.961Z,100153.72
2022-08-26T02:49:24.947Z,100166.88
2022-08-26T02:50:27.682Z,100156.84
2022-08-26T02:51:30.131Z,100163.28
2022-08-26T02:52:32.427Z,100165.56
2022-08-26T02:53:35.426Z,100159.97
2022-08-26T02:54:38.598Z,100161.16
2022-08-26T02:55:41.924Z,100161.44
2022-08-26T02:56:46.044Z,100161.44
2022-08-26T02:57:48.317Z,100160.63
2022-08-26T02:58:51.000Z,100160.63
2022-08-26T02:59:53.223Z,100157.31
2022-08-26T03:00:55.651Z,100156.50
2022-08-26T03:01:58.211Z,100161.78
2022-08-26T03:03:00.416Z,100152.06
2022-08-26T03:04:04.188Z,100151.59
2022-08-26T03:05:07.641Z,100158.00
2022-08-26T03:06:10.974Z,100162.81
2022-08-26T03:07:13.382Z,100149.94
2022-08-26T03:08:15.693Z,100151.88
2022-08-26T03:09:26.903Z,100158.69
2022-08-26T03:10:32.288Z,100157.84
2022-08-26T03:11:35.816Z,100165.44
2022-08-26T03:12:41.252Z,100156.19
2022-08-26T03:13:43.624Z,100160.97
2022-08-26T03:14:48.803Z,100159.31
2022-08-26T03:15:51.062Z,100157.66
2022-08-26T03:16:54.549Z,100154.88
2022-08-26T03:17:57.159Z,100154.06
2022-08-26T03:19:00.429Z,100152.41
2022-08-26T03:20:03.784Z,100150.78
2022-08-26T03:21:12.691Z,100149.94
2022-08-26T03:22:15.159Z,100144.66
2022-08-26T03:23:20.779Z,100148.59
2022-08-26T03:24:23.005Z,100148.94
2022-08-26T03:25:27.428Z,100146.13
2022-08-26T03:26:29.907Z,100144.50
2022-08-26T03:27:32.854Z,100144.50
2022-08-26T03:28:35.360Z,100141.22
2022-08-26T03:29:58.057Z,100144.81
2022-08-26T03:31:00.613Z,100144.31
2022-08-26T03:32:04.190Z,100144.31
2022-08-26T03:33:07.448Z,100145.16
2022-08-26T03:34:09.797Z,100147.47
2022-08-26T03:35:13.695Z,100143.00
2022-08-26T03:36:16.166Z,100140.19
2022-08-26T03:37:19.023Z,100146.66
2022-08-26T03:38:25.205Z,100143.00
2022-08-26T03:39:31.571Z,100138.56
2022-08-26T03:40:36.713Z,100137.72
2022-08-26T03:41:40.607Z,100143.34
2022-08-26T03:42:45.444Z,100141.69
2022-08-26T03:43:48.500Z,100138.06
2022-08-26T03:44:51.621Z,100140.88
2022-08-26T03:45:53.835Z,100142.84
2022-08-26T03:46:57.053Z,100147.63
2022-08-26T03:47:59.905Z,100145.16
2022-08-26T03:49:05.327Z,100128.66
2022-08-26T03:50:10.857Z,100139.03
2022-08-26T03:51:19.150Z,100134.28
2022-08-26T03:52:21.355Z,100136.56
2022-08-26T03:53:23.981Z,100137.72
2022-08-26T03:54:27.046Z,100134.91
2022-08-26T03:55:32.187Z,100130.50
2022-08-26T03:56:34.748Z,100137.72
2022-08-26T03:57:37.361Z,100132.44
2022-08-26T03:58:39.672Z,100138.06
2022-08-26T03:59:45.460Z,100137.25
2022-08-26T04:00:47.877Z,100142.03
2022-08-26T04:01:53.769Z,100133.94
2022-08-26T04:02:56.568Z,100137.91
2022-08-26T04:04:00.283Z,100137.03
2022-08-26T04:05:03.096Z,100125.84
2022-08-26T04:06:06.031Z,100129.78
2022-08-26T04:07:08.657Z,100135.38
2022-08-26T04:08:10.998Z,100134.56
2022-08-26T04:09:18.104Z,100131.78
2022-08-26T04:10:28.962Z,100135.72
2022-08-26T04:11:38.319Z,100132.91
2022-08-26T04:12:41.673Z,100138.53
2022-08-26T04:13:43.999Z,100131.25
2022-08-26T04:14:46.731Z,100133.25
2022-08-26T04:15:49.069Z,100133.25
2022-08-26T04:16:53.135Z,100131.25
2022-08-26T04:17:57.693Z,100135.25
2022-08-26T04:19:00.285Z,100135.56
2022-08-26T04:20:05.981Z,100131.59
2022-08-26T04:21:09.148Z,100132.75
2022-08-26T04:22:12.957Z,100133.59
2022-08-26T04:23:16.853Z,100131.94
2022-08-26T04:24:22.762Z,100125.00
2022-08-26T04:25:25.926Z,100127.47
2022-08-26T04:26:28.441Z,100125.00
2022-08-26T04:27:30.657Z,100125.00
2022-08-26T04:28:32.897Z,100142.63
2022-08-26T04:29:35.131Z,100127.81
2022-08-26T04:30:38.247Z,100133.41
2022-08-26T04:31:41.371Z,100134.22
2022-08-26T04:32:44.269Z,100126.16
2022-08-26T04:33:49.574Z,100135.41
2022-08-26T04:34:52.034Z,100130.94
2022-08-26T04:36:02.548Z,100134.56
2022-08-26T04:37:06.113Z,100136.56
2022-08-26T04:38:09.392Z,100130.09
2022-08-26T04:39:15.016Z,100132.91
2022-08-26T04:40:17.355Z,100143.31
2022-08-26T04:41:20.696Z,100143.31
2022-08-26T04:42:25.998Z,100142.50
2022-08-26T04:43:30.560Z,100138.84
2022-08-26T04:44:35.959Z,100139.69
2022-08-26T04:45:40.416Z,100136.03
2022-08-26T04:46:43.949Z,100137.19
2022-08-26T04:47:46.907Z,100143.63
2022-08-26T04:48:51.790Z,100129.97
2022-08-26T04:49:57.729Z,100137.19
2022-08-26T04:51:00.822Z,100134.38
2022-08-26T04:52:05.159Z,100142.78
2022-08-26T04:53:07.591Z,100140.00
2022-08-26T04:54:16.751Z,100134.38
2022-08-26T04:55:20.766Z,100129.97
2022-08-26T04:56:30.709Z,100136.38
2022-08-26T04:57:36.435Z,100135.22
2022-08-26T04:58:38.934Z,100128.78
2022-08-26T04:59:41.149Z,100140.00
2022-08-26T05:00:45.131Z,100131.59
2022-08-26T05:01:50.397Z,100132.44
2022-08-26T05:02:53.278Z,100130.44
2022-08-26T05:03:55.507Z,100130.44
2022-08-26T05:04:58.497Z,100129.63
2022-08-26T05:06:04.594Z,100129.28
2022-08-26T05:07:07.955Z,100133.75
2022-08-26T05:08:14.386Z,100130.94
2022-08-26T05:09:21.089Z,100131.75
2022-08-26T05:10:24.213Z,100128.97
2022-08-26T05:11:26.489Z,100136.22
2022-08-26T05:12:30.075Z,100132.59
2022-08-26T05:13:33.815Z,100135.88
2022-08-26T05:14:36.511Z,100133.09
2022-08-26T05:15:39.383Z,100133.59
2022-08-26T05:16:43.062Z,100134.41
2022-08-26T05:17:45.264Z,100136.06
2022-08-26T05:18:49.805Z,100139.66
2022-08-26T05:19:51.983Z,100141.66
2022-08-26T05:20:55.057Z,100136.88
2022-08-26T05:21:57.259Z,100142.97
2022-08-26T05:23:02.512Z,100140.19
2022-08-26T05:24:05.464Z,100142.66
2022-08-26T05:25:08.129Z,100137.03
2022-08-26T05:26:10.347Z,100143.53
2022-08-26T05:27:14.171Z,100142.34
2022-08-26T05:28:18.392Z,100141.19
2022-08-26T05:29:22.315Z,100146.81
2022-08-26T05:30:25.039Z,100141.19
2022-08-26T05:31:31.711Z,100138.06
2022-08-26T05:32:34.039Z,100139.72
2022-08-26T05:33:36.216Z,100138.91
2022-08-26T05:34:43.606Z,100138.91
2022-08-26T05:35:48.015Z,100140.53
2022-08-26T05:36:50.523Z,100144.16
2022-08-26T05:37:52.766Z,100139.38
2022-08-26T05:38:56.957Z,100143.84
2022-08-26T05:39:59.224Z,100144.66
2022-08-26T05:41:02.194Z,100138.72
2022-08-26T05:42:05.893Z,100140.69
2022-08-26T05:43:12.044Z,100133.13
2022-08-26T05:44:18.860Z,100137.56
2022-08-26T05:45:24.273Z,100129.66
2022-08-26T05:46:27.368Z,100132.47
2022-08-26T05:47:29.856Z,100142.19
2022-08-26T05:48:32.042Z,100144.19
2022-08-26T05:49:34.774Z,100136.25
2022-08-26T05:50:49.594Z,100139.03
2022-08-26T05:51:52.156Z,100140.38
2022-08-26T05:52:54.331Z,100135.59
2022-08-26T05:53:58.394Z,100139.22
2022-08-26T05:55:01.271Z,100142.19
2022-08-26T05:56:05.271Z,100141.84
2022-08-26T05:57:07.495Z,100143.16
2022-08-26T05:58:10.461Z,100144.50
2022-08-26T05:59:14.782Z,100141.84
2022-08-26T06:00:16.988Z,100146.28
2022-08-26T06:01:21.948Z,100147.59
2022-08-26T06:02:26.457Z,100147.75
2022-08-26T06:03:29.635Z,100145.47
2022-08-26T06:04:31.985Z,100145.63
2022-08-26T06:05:41.958Z,100150.06
2022-08-26T06:06:46.337Z,100146.59
2022-08-26T06:08:07.304Z,100145.94
2022-08-26T06:09:10.982Z,100143.63
2022-08-26T06:10:31.510Z,100141.81
2022-08-26T06:11:34.625Z,100139.47
2022-08-26T06:12:37.580Z,100139.63
2022-08-26T06:13:40.704Z,100149.03
2022-08-26T06:14:44.231Z,100141.56
2022-08-26T06:15:48.887Z,100141.44
2022-08-26T06:16:54.185Z,100146.84
2022-08-26T06:17:56.438Z,100141.91
2022-08-26T06:18:59.687Z,100142.53
2022-08-26T06:20:02.064Z,100139.19
2022-08-26T06:21:17.141Z,100139.16
2022-08-26T06:22:38.408Z,100144.75
2022-08-26T06:23:59.452Z,100142.38
2022-08-26T06:25:21.613Z,100148.09
2022-08-26T06:26:25.685Z,100142.94
2022-08-26T06:27:32.141Z,100141.72
2022-08-26T06:28:35.146Z,100145.28
2022-08-26T06:29:39.135Z,100144.41
2022-08-26T06:30:41.711Z,100150.78
2022-08-26T06:31:44.573Z,100149.53
2022-08-26T06:32:46.766Z,100145.84
2022-08-26T06:33:50.053Z,100147.41
2022-08-26T06:34:52.543Z,100148.19
2022-08-26T06:35:55.602Z,100148.91
2022-08-26T06:37:02.443Z,100144.84
2022-08-26T06:38:08.938Z,100144.78
2022-08-26T06:39:17.257Z,100148.66
2022-08-26T06:40:23.610Z,100144.13
2022-08-26T06:41:26.208Z,100148.34
2022-08-26T06:42:31.246Z,100137.34
2022-08-26T06:43:36.241Z,100144.06
2022-08-26T06:44:41.183Z,100138.34
2022-08-26T06:45:45.943Z,100145.00
2022-08-26T06:46:50.725Z,100152.19
2022-08-26T06:47:53.592Z,100146.81
2022-08-26T06:49:00.438Z,100150.78
2022-08-26T06:50:02.855Z,100140.19
2022-08-26T06:51:18.490Z,100146.69
2022-08-26T06:52:24.506Z,100139.75
2022-08-26T06:53:27.570Z,100145.69
2022-08-26T06:54:31.721Z,100142.38
2022-08-26T06:55:43.264Z,100143.19
2022-08-26T06:56:49.459Z,100138.22
2022-08-26T06:57:51.705Z,100146.16
2022-08-26T06:58:54.206Z,100145.22
2022-08-26T06:59:58.091Z,100141.88
2022-08-26T07:01:03.741Z,100144.53
2022-08-26T07:02:13.921Z,100137.53
2022-08-26T07:03:16.247Z,100137.38
2022-08-26T07:04:22.038Z,100134.38
2022-08-26T07:05:26.396Z,100133.88
2022-08-26T07:06:28.727Z,100133.34
2022-08-26T07:07:30.951Z,100138.44
2022-08-26T07:08:33.118Z,100136.25
2022-08-26T07:09:37.546Z,100138.97
2022-08-26T07:10:39.882Z,100129.13
2022-08-26T07:11:42.301Z,100139.84
2022-08-26T07:12:47.124Z,100133.28
2022-08-26T07:13:50.588Z,100146.47
2022-08-26T07:14:54.209Z,100139.41
2022-08-26T07:15:58.268Z,100135.63
2022-08-26T07:17:12.202Z,100133.47
2022-08-26T07:18:17.320Z,100135.75
2022-08-26T07:19:29.908Z,100136.41
2022-08-26T07:20:37.099Z,100137.06
2022-08-26T07:21:43.073Z,100134.06
2022-08-26T07:22:45.598Z,100137.91
2022-08-26T07:23:49.110Z,100138.13
2022-08-26T07:24:51.431Z,100138.34
2022-08-26T07:25:53.646Z,100144.19
2022-08-26T07:27:08.759Z,100133.03
2022-08-26T07:28:11.123Z,100141.28
2022-08-26T07:29:14.940Z,100133.31
2022-08-26T07:30:17.229Z,100134.28
2022-08-26T07:31:21.815Z,100132.38
2022-08-26T07:32:24.068Z,100134.13
2022-08-26T07:33:26.292Z,100128.13
2022-08-26T07:34:29.417Z,100128.63
2022-08-26T07:35:31.753Z,100124.22
2022-08-26T07:36:34.698Z,100125.13
2022-08-26T07:37:46.069Z,100117.88
2022-08-26T07:38:49.236Z,100125.66
2022-08-26T07:39:52.504Z,100126.13
2022-08-26T07:40:54.926Z,100125.00
2022-08-26T07:41:57.892Z,100120.19
2022-08-26T07:43:00.946Z,100119.84
2022-08-26T07:44:04.285Z,100129.63
2022-08-26T07:45:09.637Z,100130.53
2022-08-26T07:46:18.501Z,100128.97
2022-08-26T07:47:25.397Z,100125.81
2022-08-26T07:48:28.588Z,100123.03
2022-08-26T07:49:32.817Z,100127.56
2022-08-26T07:50:50.011Z,100126.88
2022-08-26T07:51:54.577Z,100122.09
2022-08-26T07:52:56.800Z,100127.00
2022-08-26T07:53:59.161Z,100124.25
2022-08-26T07:55:04.571Z,100123.50
2022-08-26T07:56:06.894Z,100121.56
2022-08-26T07:57:11.230Z,100119.59
2022-08-26T07:58:14.221Z,100113.56
2022-08-26T07:59:17.776Z,100122.59
2022-08-26T08:00:22.921Z,100121.03
2022-08-26T08:01:27.159Z,100116.63
2022-08-26T08:02:31.144Z,100113.81
2022-08-26T08:03:33.929Z,100116.72
2022-08-26T08:04:36.423Z,100111.47
2022-08-26T08:05:41.271Z,100112.31
2022-08-26T08:06:47.550Z,100112.00
2022-08-26T08:07:49.788Z,100114.09
2022-08-26T08:08:56.227Z,100117.78
2022-08-26T08:09:58.467Z,100107.63
2022-08-26T08:11:01.539Z,100106.06
2022-08-26T08:12:07.063Z,100098.38
2022-08-26T08:13:10.001Z,100098.41
2022-08-26T08:14:13.219Z,100104.13
2022-08-26T08:15:16.961Z,100101.31
2022-08-26T08:16:19.231Z,100096.88
2022-08-26T08:17:21.540Z,100101.78
2022-08-26T08:18:24.085Z,100098.94
2022-08-26T08:19:36.661Z,100092.44
2022-08-26T08:20:44.818Z,100099.81
2022-08-26T08:21:57.067Z,100092.09
2022-08-26T08:23:00.656Z,100086.41
2022-08-26T08:24:03.146Z,100085.63
2022-08-26T08:25:11.782Z,100086.44
2022-08-26T08:26:14.229Z,100077.06
2022-08-26T08:27:18.119Z,100089.69
2022-08-26T08:28:23.730Z,100087.66
2022-08-26T08:29:26.753Z,100084.00
2022-08-26T08:30:29.017Z,100077.88
2022-08-26T08:32:55.490Z,100084.00
2022-08-26T08:33:57.995Z,100073.00
2022-08-26T08:35:00.289Z,100079.50
2022-08-26T08:36:05.994Z,100076.22
2022-08-26T08:37:11.464Z,100074.59
2022-08-26T08:38:13.686Z,100078.63
2022-08-26T08:39:17.047Z,100071.28
2022-08-26T08:40:19.494Z,100070.44
2022-08-26T08:41:31.462Z,100073.72
2022-08-26T08:42:57.291Z,100072.47
2022-08-26T08:44:01.754Z,100070.41
2022-08-26T08:45:34.500Z,100069.53
2022-08-26T08:46:41.369Z,100069.53
2022-08-26T08:47:51.701Z,100067.84
2022-08-26T08:49:00.004Z,100071.09
2022-08-26T08:50:17.914Z,100064.56
2022-08-26T08:51:48.151Z,100055.53
2022-08-26T08:53:19.109Z,100067.34
2022-08-26T08:54:26.494Z,100064.88
2022-08-26T08:55:36.842Z,100057.88
2022-08-26T08:56:57.619Z,100061.94
2022-08-26T08:58:10.291Z,100058.22
2022-08-26T08:59:27.591Z,100057.78
2022-08-26T09:00:40.068Z,100053.66
2022-08-26T09:01:52.545Z,100051.16
2022-08-26T09:02:58.808Z,100049.13
2022-08-26T09:04:19.626Z,100048.25
2022-08-26T09:05:40.225Z,100049.84
2022-08-26T09:06:43.318Z,100055.53
2022-08-26T09:07:54.363Z,100053.44
2022-08-26T09:08:57.834Z,100056.69
2022-08-26T09:10:35.940Z,100049.31
2022-08-26T09:11:38.905Z,100057.09
2022-08-26T09:12:45.761Z,100053.00
2022-08-26T09:13:52.495Z,100052.16
2022-08-26T09:15:02.510Z,100059.94
2022-08-26T09:16:19.055Z,100047.72
2022-08-26T09:17:44.186Z,100050.16
2022-08-26T09:19:14.353Z,100045.69
2022-08-26T09:20:42.471Z,100042.81
2022-08-26T09:21:56.779Z,100030.59
2022-08-26T09:22:59.120Z,100042.81
2022-08-26T09:24:01.319Z,100034.66
2022-08-26T09:25:08.243Z,100035.47
2022-08-26T09:26:42.508Z,100033.03
2022-08-26T09:27:50.287Z,100038.38
2022-08-26T09:28:58.871Z,100031.84
2022-08-26T09:30:01.099Z,100040.84
2022-08-26T09:31:17.463Z,100043.69
2022-08-26T09:32:25.049Z,100033.50
2022-08-26T09:33:35.142Z,100035.53
2022-08-26T09:34:52.140Z,100037.59
2022-08-26T09:36:13.005Z,100030.63
2022-08-26T09:37:53.134Z,100030.63
2022-08-26T09:38:56.165Z,100023.31
2022-08-26T09:40:18.426Z,100031.47
2022-08-26T09:41:24.898Z,100033.50
2022-08-26T09:42:27.111Z,100023.72
2022-08-26T09:43:30.959Z,100033.53
2022-08-26T09:44:34.657Z,100033.16
2022-08-26T09:45:39.591Z,100028.69
2022-08-26T09:47:02.626Z,100036.44
2022-08-26T09:48:07.603Z,100038.94
2022-08-26T09:49:24.727Z,100039.81
2022-08-26T09:50:53.875Z,100034.94
2022-08-26T09:52:05.318Z,100035.81
2022-08-26T09:53:28.775Z,100029.31
2022-08-26T09:54:35.281Z,100029.38
2022-08-26T09:55:39.788Z,100022.91
2022-08-26T09:56:42.758Z,100035.16
2022-08-26T09:57:51.505Z,100036.84
2022-08-26T09:58:55.492Z,100023.84
2022-08-26T09:59:57.799Z,100022.28
2022-08-26T10:01:02.601Z,100021.50
2022-08-26T10:02:29.629Z,100007.66
2022-08-26T10:03:36.129Z,100010.13
2022-08-26T10:04:38.421Z,100015.47
2022-08-26T10:05:45.266Z,100012.25
2022-08-26T10:07:02.820Z,100016.75
2022-08-26T10:08:23.141Z,100009.44
2022-08-26T10:09:26.461Z,100017.59
2022-08-26T10:10:35.410Z,100009.44
2022-08-26T10:11:40.334Z,100006.63
2022-08-26T10:12:55.077Z,100003.38
2022-08-26T10:14:03.265Z,100000.53
2022-08-26T10:15:11.893Z,99998.91
2022-08-26T10:16:35.587Z,99993.59
2022-08-26T10:17:52.559Z,99994.41
2022-08-26T10:19:12.183Z,99983.81
2022-08-26T10:20:24.996Z,99978.94
2022-08-26T10:21:36.903Z,99990.72
2022-08-26T10:22:47.648Z,99985.81
2022-08-26T10:23:53.904Z,99987.03
2022-08-26T10:25:03.853Z,99990.25
2022-08-26T10:26:16.456Z,99994.31
2022-08-26T10:27:53.428Z,99997.13
2022-08-26T10:29:19.119Z,99994.66
2022-08-26T10:30:24.163Z,99991.41
2022-08-26T10:31:40.560Z,99997.91
2022-08-26T10:32:48.957Z,99997.44
2022-08-26T10:33:52.512Z,99992.97
2022-08-26T10:34:56.654Z,99982.78
2022-08-26T10:36:03.469Z,99982.34
2022-08-26T10:37:16.602Z,99978.69
2022-08-26T10:38:27.373Z,99986.38
2022-08-26T10:39:37.100Z,99967.66
2022-08-26T10:41:02.752Z,99968.47
2022-08-26T10:42:38.852Z,99970.47
2022-08-26T10:43:53.596Z,99965.56
2022-08-26T10:45:02.369Z,99963.53
2022-08-26T10:46:10.665Z,99957.81
2022-08-26T10:47:24.696Z,99952.13
2022-08-26T10:48:39.130Z,99954.97
2022-08-26T10:49:44.378Z,99954.13
2022-08-26T10:50:47.824Z,99946.81
2022-08-26T10:52:19.549Z,99950.84
2022-08-26T10:53:45.103Z,99952.09
2022-08-26T10:55:07.170Z,99958.59
2022-08-26T10:56:36.655Z,99959.38
2022-08-26T10:57:55.559Z,99965.50
2022-08-26T10:59:12.191Z,99963.47
2022-08-26T11:00:43.981Z,99963.88
2022-08-26T11:02:25.135Z,99970.81
2022-08-26T11:03:34.472Z,99961.06
2022-08-26T11:05:06.256Z,99963.09
2022-08-26T11:06:18.006Z,99950.94
2022-08-26T11:07:45.067Z,99953.00
2022-08-26T11:08:52.828Z,99943.66
2022-08-26T11:09:55.035Z,99943.25
2022-08-26T11:11:00.608Z,99937.59
2022-08-26T11:12:10.012Z,99931.91
2022-08-26T11:13:12.638Z,99931.91
2022-08-26T11:14:28.923Z,99946.56
2022-08-26T11:15:32.421Z,99942.88
2022-08-26T11:16:44.395Z,99943.72
2022-08-26T11:17:46.720Z,99944.53
2022-08-26T11:18:51.310Z,99942.47
2022-08-26T11:20:03.294Z,99961.19
2022-08-26T11:21:47.674Z,99956.69
2022-08-26T11:22:53.440Z,99964.81
2022-08-26T11:23:55.655Z,99958.75
2022-08-26T11:24:57.792Z,99957.09
2022-08-26T11:26:08.935Z,99958.72
2022-08-26T11:27:37.223Z,99963.59
2022-08-26T11:28:44.223Z,99963.19
2022-08-26T11:30:08.129Z,99961.13
2022-08-26T11:31:40.917Z,99954.63
2022-08-26T11:32:43.367Z,99948.94
2022-08-26T11:33:48.945Z,99948.09
2022-08-26T11:34:59.392Z,99941.63
2022-08-26T11:36:11.494Z,99929.81
2022-08-26T11:37:17.835Z,99935.09
2022-08-26T11:38:29.088Z,99928.59
2022-08-26T11:39:46.861Z,99923.72
2022-08-26T11:41:06.387Z,99924.94
2022-08-26T11:42:46.507Z,99909.88
2022-08-26T11:43:50.557Z,99906.25
2022-08-26T11:44:53.227Z,99900.56
2022-08-26T11:46:10.769Z,99895.69
2022-08-26T11:47:15.559Z,99900.97
2022-08-26T11:48:20.942Z,99892.03
2022-08-26T11:49:24.973Z,99896.09
2022-08-26T11:50:28.679Z,99885.94
2022-08-26T11:51:34.947Z,99883.94
2022-08-26T11:52:40.481Z,99874.16
2022-08-26T11:53:53.887Z,99878.25
2022-08-26T11:55:06.593Z,99881.47
2022-08-26T11:56:34.442Z,99871.34
2022-08-26T11:57:46.033Z,99869.72
2022-08-26T11:58:51.599Z,99871.34
2022-08-26T11:59:55.551Z,99868.09
2022-08-26T12:01:09.757Z,99875.03
2022-08-26T12:02:18.114Z,99858.38
2022-08-26T12:03:49.716Z,99851.06
2022-08-26T12:04:54.593Z,99855.94
2022-08-26T12:05:57.413Z,99851.88
2022-08-26T12:07:02.432Z,99850.28
2022-08-26T12:08:11.092Z,99851.50
2022-08-26T12:09:21.747Z,99857.56
2022-08-26T12:10:33.876Z,99851.50
2022-08-26T12:11:37.690Z,99853.56
2022-08-26T12:12:42.570Z,99854.78
2022-08-26T12:13:54.402Z,99862.91
2022-08-26T12:15:20.485Z,99855.19
2022-08-26T12:16:29.572Z,99864.97
2022-08-26T12:17:34.542Z,99864.16
2022-08-26T12:18:40.368Z,99856.03
2022-08-26T12:19:50.172Z,99857.25
2022-08-26T12:20:56.472Z,99855.63
2022-08-26T12:22:04.065Z,99863.38
2022-08-26T12:23:06.307Z,99859.69
2022-08-26T12:24:11.456Z,99852.78
2022-08-26T12:25:22.919Z,99855.22
2022-08-26T12:26:40.089Z,99845.47
2022-08-26T12:27:44.216Z,99851.16
2022-08-26T12:28:58.496Z,99850.78
2022-08-26T12:30:02.818Z,99843.03
2022-08-26T12:31:06.528Z,99841.00
2022-08-26T12:32:13.562Z,99846.28
2022-08-26T12:33:22.682Z,99841.00
2022-08-26T12:34:26.284Z,99845.06
2022-08-26T12:35:29.458Z,99838.16
2022-08-26T12:36:36.627Z,99845.06
2022-08-26T12:37:43.190Z,99847.50
2022-08-26T12:38:46.897Z,99842.63
2022-08-26T12:39:49.366Z,99837.75
2022-08-26T12:40:51.797Z,99842.22
2022-08-26T12:42:03.200Z,99843.03
2022-08-26T12:43:07.269Z,99843.44
2022-08-26T12:44:09.535Z,99834.91
2022-08-26T12:45:11.724Z,99837.34
2022-08-26T12:46:18.106Z,99838.16
2022-08-26T12:47:43.136Z,99838.59
2022-08-26T12:48:49.141Z,99839.41
2022-08-26T12:50:10.970Z,99849.16
2022-08-26T12:51:22.300Z,99840.22
2022-08-26T12:52:31.364Z,99836.53
2022-08-26T12:53:40.768Z,99842.66